Time,TemperatureF,DewpointF,PressureIn,WindDirection,WindDirectionDegrees,WindSpeedMPH,WindSpeedGustMPH,Humidity,HourlyPrecipIn,Conditions,Clouds,dailyrainin,SoftwareType,DateUTC
2013-07-05 00:02:00,75.0,41.0,29.39,North,359,1.0,-999.0,30,-99.99,,,-99.99,,2013-07-05 06:02:00,
2013-07-05 00:13:00,72.0,43.0,29.41,North,359,3.0,-999.0,35,-99.99,,,-99.99,,2013-07-05 06:13:00,
2013-07-05 00:23:00,71.0,42.0,29.42,NNE,12,2.0,-999.0,35,-99.99,,,-99.99,,2013-07-05 06:23:00,
2013-07-05 00:34:00,71.0,42.0,29.42,NNE,12,2.0,-999.0,35,-99.99,,,-99.99,,2013-07-05 06:34:00,
2013-07-05 00:44:00,70.0,43.0,29.41,NNE,12,2.0,-999.0,37,-99.99,,,-99.99,,2013-07-05 06:44:00,
2013-07-05 00:53:00,68.0,42.0,29.42,NNE,12,0.0,-999.0,39,-99.99,,,-99.99,,2013-07-05 06:53:00,
2013-07-05 01:02:00,68.0,42.0,29.42,NNE,12,0.0,-999.0,39,-99.99,,,-99.99,,2013-07-05 07:02:00,
2013-07-05 01:12:00,68.0,43.0,29.43,NNE,12,3.0,-999.0,41,-99.99,,,-99.99,,2013-07-05 07:12:00,
2013-07-05 01:23:00,66.0,44.0,29.42,NNE,12,0.0,-999.0,45,-99.99,,,-99.99,,2013-07-05 07:23:00,
2013-07-05 01:34:00,66.0,44.0,29.42,NNE,12,0.0,-999.0,45,-99.99,,,-99.99,,2013-07-05 07:34:00,
2013-07-05 01:43:00,65.0,45.0,29.44,NNE,12,0.0,-999.0,48,-99.99,,,-99.99,,2013-07-05 07:43:00,
2013-07-05 01:53:00,65.0,45.0,29.46,NNE,12,0.0,-999.0,48,-99.99,,,-99.99,,2013-07-05 07:53:00,
2013-07-05 02:02:00,65.0,45.0,29.46,NNE,12,0.0,-999.0,48,-99.99,,,-99.99,,2013-07-05 08:02:00,
2013-07-05 02:12:00,65.0,45.0,29.46,NNE,12,0.0,-999.0,48,-99.99,,,-99.99,,2013-07-05 08:12:00,
2013-07-05 02:23:00,65.0,44.0,29.45,NNE,12,1.0,-999.0,47,-99.99,,,-99.99,,2013-07-05 08:23:00,
2013-07-05 02:33:00,65.0,44.0,29.45,NNE,12,1.0,-999.0,47,-99.99,,,-99.99,,2013-07-05 08:33:00,
2013-07-05 02:43:00,67.0,44.0,29.45,North,5,5.0,-999.0,44,-99.99,,,-99.99,,2013-07-05 08:43:00,
2013-07-05 02:53:00,67.0,43.0,29.43,North,3,3.0,-999.0,41,-99.99,,,-99.99,,2013-07-05 08:53:00,
2013-07-05 03:06:00,67.0,43.0,29.43,North,3,3.0,-999.0,41,-99.99,,,-99.99,,2013-07-05 09:06:00,
2013-07-05 03:15:00,67.0,43.0,29.43,North,1,3.0,-999.0,41,-99.99,,,-99.99,,2013-07-05 09:15:00,
2013-07-05 03:24:00,66.0,42.0,29.43,North,359,5.0,-999.0,42,-99.99,,,-99.99,,2013-07-05 09:24:00,
2013-07-05 03:37:00,66.0,42.0,29.43,North,359,5.0,-999.0,42,-99.99,,,-99.99,,2013-07-05 09:37:00,
2013-07-05 03:46:00,66.0,43.0,29.44,North,0,4.0,-999.0,44,-99.99,,,-99.99,,2013-07-05 09:46:00,
2013-07-05 03:53:00,66.0,44.0,29.45,North,0,1.0,-999.0,45,-99.99,,,-99.99,,2013-07-05 09:53:00,
2013-07-05 04:06:00,66.0,44.0,29.45,North,0,1.0,-999.0,45,-99.99,,,-99.99,,2013-07-05 10:06:00,
2013-07-05 04:16:00,66.0,43.0,29.44,North,0,1.0,-999.0,44,-99.99,,,-99.99,,2013-07-05 10:16:00,
2013-07-05 04:35:00,66.0,44.0,29.44,North,0,3.0,-999.0,45,-99.99,,,-99.99,,2013-07-05 10:35:00,
2013-07-05 04:46:00,66.0,43.0,29.43,North,0,2.0,-999.0,44,-99.99,,,-99.99,,2013-07-05 10:46:00,
2013-07-05 04:55:00,69.0,44.0,29.42,North,0,2.0,-999.0,41,-99.99,,,-99.99,,2013-07-05 10:55:00,
2013-07-05 05:06:00,69.0,44.0,29.42,North,0,2.0,-999.0,41,-99.99,,,-99.99,,2013-07-05 11:06:00,
2013-07-05 05:16:00,69.0,44.0,29.42,North,1,3.0,-999.0,41,-99.99,,,-99.99,,2013-07-05 11:16:00,
2013-07-05 05:23:00,68.0,45.0,29.42,North,1,6.0,-999.0,43,-99.99,,,-99.99,,2013-07-05 11:23:00,
2013-07-05 05:37:00,68.0,45.0,29.42,North,1,6.0,-999.0,43,-99.99,,,-99.99,,2013-07-05 11:37:00,
2013-07-05 05:45:00,68.0,45.0,29.43,North,5,6.0,-999.0,43,-99.99,,,-99.99,,2013-07-05 11:45:00,
2013-07-05 06:06:00,68.0,45.0,29.44,NNE,21,3.0,-999.0,44,-99.99,,,-99.99,,2013-07-05 12:06:00,
2013-07-05 06:15:00,67.0,44.0,29.45,NNE,22,1.0,-999.0,44,-99.99,,,-99.99,,2013-07-05 12:15:00,
2013-07-05 06:35:00,68.0,45.0,29.44,NNE,22,0.0,-999.0,44,-99.99,,,-99.99,,2013-07-05 12:35:00,
2013-07-05 06:55:00,67.0,46.0,29.46,North,1,3.0,-999.0,46,-99.99,,,-99.99,,2013-07-05 12:55:00,
2013-07-05 07:05:00,67.0,46.0,29.46,North,1,3.0,-999.0,46,-99.99,,,-99.99,,2013-07-05 13:05:00,
2013-07-05 07:13:00,68.0,46.0,29.47,North,1,2.0,-999.0,45,-99.99,,,-99.99,,2013-07-05 13:13:00,
2013-07-05 07:23:00,69.0,48.0,29.47,North,1,3.0,-999.0,47,-99.99,,,-99.99,,2013-07-05 13:23:00,
2013-07-05 07:37:00,69.0,48.0,29.47,North,1,3.0,-999.0,47,-99.99,,,-99.99,,2013-07-05 13:37:00,
2013-07-05 07:55:00,69.0,46.0,29.47,North,1,4.0,-999.0,43,-99.99,,,-99.99,,2013-07-05 13:55:00,
2013-07-05 08:06:00,69.0,47.0,29.50,North,1,2.0,-999.0,46,-99.99,,,-99.99,,2013-07-05 14:06:00,
2013-07-05 08:25:00,70.0,47.0,29.50,North,1,1.0,-999.0,44,-99.99,,,-99.99,,2013-07-05 14:25:00,
2013-07-05 08:36:00,70.0,47.0,29.50,North,1,1.0,-999.0,44,-99.99,,,-99.99,,2013-07-05 14:36:00,
2013-07-05 08:45:00,72.0,48.0,29.49,North,1,1.0,-999.0,43,-99.99,,,-99.99,,2013-07-05 14:45:00,
2013-07-05 08:54:00,72.0,48.0,29.49,North,1,1.0,-999.0,43,-99.99,,,-99.99,,2013-07-05 14:54:00,
2013-07-05 09:05:00,74.0,47.0,29.51,NE,37,2.0,-999.0,38,-99.99,,,-99.99,,2013-07-05 15:05:00,
2013-07-05 09:15:00,77.0,49.0,29.50,ENE,77,1.0,-999.0,37,-99.99,,,-99.99,,2013-07-05 15:15:00,
2013-07-05 09:23:00,77.0,49.0,29.50,ENE,77,1.0,-999.0,37,-99.99,,,-99.99,,2013-07-05 15:23:00,
2013-07-05 09:33:00,77.0,47.0,29.49,East,83,3.0,-999.0,35,-99.99,,,-99.99,,2013-07-05 15:33:00,
2013-07-05 09:43:00,80.0,47.0,29.47,ENE,66,1.0,-999.0,31,-99.99,,,-99.99,,2013-07-05 15:43:00,
2013-07-05 10:11:00,81.0,46.0,29.47,East,92,2.0,-999.0,29,-99.99,,,-99.99,,2013-07-05 16:11:00,
2013-07-05 10:22:00,81.0,46.0,29.47,East,92,2.0,-999.0,29,-99.99,,,-99.99,,2013-07-05 16:22:00,
2013-07-05 10:33:00,82.0,46.0,29.47,East,92,2.0,-999.0,28,-99.99,,,-99.99,,2013-07-05 16:33:00,
2013-07-05 10:44:00,83.0,46.0,29.45,East,98,1.0,-999.0,27,-99.99,,,-99.99,,2013-07-05 16:44:00,
2013-07-05 10:53:00,83.0,46.0,29.45,East,98,1.0,-999.0,27,-99.99,,,-99.99,,2013-07-05 16:53:00,
2013-07-05 11:02:00,84.0,46.0,29.47,East,79,0.0,-999.0,27,-99.99,,,-99.99,,2013-07-05 17:02:00,
2013-07-05 11:12:00,85.0,44.0,29.46,SW,229,3.0,-999.0,24,-99.99,,,-99.99,,2013-07-05 17:12:00,
2013-07-05 11:22:00,85.0,44.0,29.46,SW,229,3.0,-999.0,24,-99.99,,,-99.99,,2013-07-05 17:22:00,
2013-07-05 11:33:00,85.0,44.0,29.44,SW,216,3.0,-999.0,24,-99.99,,,-99.99,,2013-07-05 17:33:00,
2013-07-05 11:43:00,86.0,45.0,29.44,ENE,76,2.0,-999.0,24,-99.99,,,-99.99,,2013-07-05 17:43:00,
2013-07-05 11:53:00,86.0,45.0,29.44,ENE,76,2.0,-999.0,24,-99.99,,,-99.99,,2013-07-05 17:53:00,
2013-07-05 12:01:00,87.0,46.0,29.46,SSE,166,1.0,-999.0,24,-99.99,,,-99.99,,2013-07-05 18:01:00,
2013-07-05 12:11:00,88.0,46.0,29.45,SSE,163,3.0,-999.0,23,-99.99,,,-99.99,,2013-07-05 18:11:00,
2013-07-05 12:22:00,88.0,46.0,29.45,SSE,163,3.0,-999.0,23,-99.99,,,-99.99,,2013-07-05 18:22:00,
2013-07-05 12:33:00,87.0,45.0,29.44,SE,134,1.0,-999.0,23,-99.99,,,-99.99,,2013-07-05 18:33:00,
2013-07-05 12:43:00,85.0,45.0,29.44,SSW,206,3.0,-999.0,25,-99.99,,,-99.99,,2013-07-05 18:43:00,
2013-07-05 12:53:00,85.0,45.0,29.44,SSW,206,3.0,-999.0,25,-99.99,,,-99.99,,2013-07-05 18:53:00,
2013-07-05 13:01:00,87.0,46.0,29.47,SSW,210,2.0,-999.0,24,-99.99,,,-99.99,,2013-07-05 19:01:00,
2013-07-05 13:12:00,89.0,44.0,29.46,South,189,2.0,-999.0,21,-99.99,,,-99.99,,2013-07-05 19:12:00,
2013-07-05 13:22:00,89.0,44.0,29.46,South,189,2.0,-999.0,21,-99.99,,,-99.99,,2013-07-05 19:22:00,
2013-07-05 13:34:00,90.0,45.0,29.45,SW,221,3.0,-999.0,21,-99.99,,,-99.99,,2013-07-05 19:34:00,
2013-07-05 13:42:00,91.0,43.0,29.44,WSW,240,4.0,-999.0,19,-99.99,,,-99.99,,2013-07-05 19:42:00,
2013-07-05 13:52:00,91.0,43.0,29.44,WSW,240,4.0,-999.0,19,-99.99,,,-99.99,,2013-07-05 19:52:00,
2013-07-05 14:01:00,91.0,42.0,29.42,SSW,210,8.0,-999.0,18,-99.99,,,-99.99,,2013-07-05 20:01:00,
2013-07-05 14:11:00,91.0,42.0,29.42,WSW,257,10.0,-999.0,18,-99.99,,,-99.99,,2013-07-05 20:11:00,
2013-07-05 14:22:00,91.0,42.0,29.42,WSW,257,10.0,-999.0,18,-99.99,,,-99.99,,2013-07-05 20:22:00,
2013-07-05 14:33:00,91.0,42.0,29.40,South,175,10.0,-999.0,18,-99.99,,,-99.99,,2013-07-05 20:33:00,
2013-07-05 14:43:00,91.0,42.0,29.39,West,278,13.0,-999.0,18,-99.99,,,-99.99,,2013-07-05 20:43:00,
2013-07-05 14:53:00,91.0,42.0,29.39,West,278,13.0,-999.0,18,-99.99,,,-99.99,,2013-07-05 20:53:00,
2013-07-05 15:01:00,93.0,42.0,29.39,WSW,251,9.0,-999.0,17,-99.99,,,-99.99,,2013-07-05 21:01:00,
2013-07-05 15:11:00,92.0,41.0,29.37,WSW,250,11.0,-999.0,17,-99.99,,,-99.99,,2013-07-05 21:11:00,
2013-07-05 15:21:00,92.0,41.0,29.37,WSW,250,11.0,-999.0,17,-99.99,,,-99.99,,2013-07-05 21:21:00,
2013-07-05 15:34:00,93.0,42.0,29.36,West,261,12.0,-999.0,17,-99.99,,,-99.99,,2013-07-05 21:34:00,
2013-07-05 15:42:00,93.0,40.0,29.35,West,262,13.0,-999.0,16,-99.99,,,-99.99,,2013-07-05 21:42:00,
2013-07-05 15:53:00,93.0,40.0,29.35,West,262,13.0,-999.0,16,-99.99,,,-99.99,,2013-07-05 21:53:00,
2013-07-05 16:01:00,94.0,39.0,29.34,WNW,285,12.0,-999.0,15,-99.99,,,-99.99,,2013-07-05 22:01:00,
2013-07-05 16:11:00,94.0,41.0,29.34,West,264,10.0,-999.0,16,-99.99,,,-99.99,,2013-07-05 22:11:00,
2013-07-05 16:21:00,94.0,41.0,29.34,West,264,10.0,-999.0,16,-99.99,,,-99.99,,2013-07-05 22:21:00,
2013-07-05 16:34:00,94.0,39.0,29.34,WNW,302,14.0,-999.0,15,-99.99,,,-99.99,,2013-07-05 22:34:00,
2013-07-05 16:43:00,93.0,38.0,29.33,NW,318,9.0,-999.0,15,-99.99,,,-99.99,,2013-07-05 22:43:00,
2013-07-05 16:53:00,93.0,38.0,29.33,NW,318,9.0,-999.0,15,-99.99,,,-99.99,,2013-07-05 22:53:00,
2013-07-05 17:02:00,94.0,39.0,29.32,West,262,10.0,-999.0,15,-99.99,,,-99.99,,2013-07-05 23:02:00,
2013-07-05 17:11:00,94.0,39.0,29.30,West,276,11.0,-999.0,15,-99.99,,,-99.99,,2013-07-05 23:11:00,
2013-07-05 17:23:00,94.0,39.0,29.30,West,276,11.0,-999.0,15,-99.99,,,-99.99,,2013-07-05 23:23:00,
2013-07-05 17:32:00,94.0,39.0,29.32,WSW,255,6.0,-999.0,15,-99.99,,,-99.99,,2013-07-05 23:32:00,
2013-07-05 17:43:00,94.0,39.0,29.31,NW,309,11.0,-999.0,15,-99.99,,,-99.99,,2013-07-05 23:43:00,
2013-07-05 17:53:00,94.0,39.0,29.31,NW,309,11.0,-999.0,15,-99.99,,,-99.99,,2013-07-05 23:53:00,
2013-07-05 18:01:00,94.0,39.0,29.31,WSW,255,13.0,-999.0,15,-99.99,,,-99.99,,2013-07-06 00:01:00,
2013-07-05 18:11:00,91.0,37.0,29.31,WSW,248,10.0,-999.0,15,-99.99,,,-99.99,,2013-07-06 00:11:00,
2013-07-05 18:22:00,91.0,37.0,29.31,WSW,248,10.0,-999.0,15,-99.99,,,-99.99,,2013-07-06 00:22:00,
2013-07-05 18:33:00,92.0,38.0,29.31,West,270,7.0,-999.0,15,-99.99,,,-99.99,,2013-07-06 00:33:00,
2013-07-05 18:42:00,93.0,38.0,29.31,West,278,10.0,-999.0,15,-99.99,,,-99.99,,2013-07-06 00:42:00,
2013-07-05 18:53:00,93.0,38.0,29.31,West,278,10.0,-999.0,15,-99.99,,,-99.99,,2013-07-06 00:53:00,
2013-07-05 19:02:00,92.0,38.0,29.30,WNW,299,8.0,-999.0,15,-99.99,,,-99.99,,2013-07-06 01:02:00,
2013-07-05 19:12:00,91.0,39.0,29.31,West,269,6.0,-999.0,16,-99.99,,,-99.99,,2013-07-06 01:12:00,
2013-07-05 19:22:00,91.0,39.0,29.31,West,269,6.0,-999.0,16,-99.99,,,-99.99,,2013-07-06 01:22:00,
2013-07-05 19:33:00,91.0,37.0,29.32,WNW,288,8.0,-999.0,15,-99.99,,,-99.99,,2013-07-06 01:33:00,
2013-07-05 19:42:00,90.0,38.0,29.33,North,351,5.0,-999.0,16,-99.99,,,-99.99,,2013-07-06 01:42:00,
2013-07-05 19:53:00,90.0,38.0,29.33,North,351,5.0,-999.0,16,-99.99,,,-99.99,,2013-07-06 01:53:00,
2013-07-05 20:02:00,87.0,38.0,29.33,NE,35,4.0,-999.0,18,-99.99,,,-99.99,,2013-07-06 02:02:00,
2013-07-05 20:12:00,84.0,44.0,29.35,East,91,5.0,-999.0,25,-99.99,,,-99.99,,2013-07-06 02:12:00,
2013-07-05 20:22:00,84.0,44.0,29.35,East,91,5.0,-999.0,25,-99.99,,,-99.99,,2013-07-06 02:22:00,
2013-07-05 20:33:00,83.0,45.0,29.36,East,87,4.0,-999.0,26,-99.99,,,-99.99,,2013-07-06 02:33:00,
2013-07-05 20:43:00,83.0,46.0,29.36,SSW,207,4.0,-999.0,27,-99.99,,,-99.99,,2013-07-06 02:43:00,
2013-07-05 20:53:00,83.0,46.0,29.36,SSW,207,4.0,-999.0,27,-99.99,,,-99.99,,2013-07-06 02:53:00,
2013-07-05 21:02:00,82.0,49.0,29.36,South,173,4.0,-999.0,32,-99.99,,,-99.99,,2013-07-06 03:02:00,
2013-07-05 21:11:00,76.0,52.0,29.37,SE,146,4.0,-999.0,43,-99.99,,,-99.99,,2013-07-06 03:11:00,
2013-07-05 21:22:00,76.0,52.0,29.37,SE,146,4.0,-999.0,43,-99.99,,,-99.99,,2013-07-06 03:22:00,
2013-07-05 21:34:00,77.0,51.0,29.39,SE,143,5.0,-999.0,40,-99.99,,,-99.99,,2013-07-06 03:34:00,
2013-07-05 21:43:00,79.0,47.0,29.41,SE,140,5.0,-999.0,33,-99.99,,,-99.99,,2013-07-06 03:43:00,
2013-07-05 21:53:00,79.0,47.0,29.41,SE,140,5.0,-999.0,33,-99.99,,,-99.99,,2013-07-06 03:53:00,
2013-07-05 22:02:00,78.0,47.0,29.39,SSW,199,3.0,-999.0,33,-99.99,,,-99.99,,2013-07-06 04:02:00,
2013-07-05 22:12:00,80.0,44.0,29.40,SW,233,6.0,-999.0,28,-99.99,,,-99.99,,2013-07-06 04:12:00,
2013-07-05 22:22:00,80.0,44.0,29.40,SW,233,6.0,-999.0,28,-99.99,,,-99.99,,2013-07-06 04:22:00,
2013-07-05 22:33:00,80.0,44.0,29.41,SW,221,5.0,-999.0,28,-99.99,,,-99.99,,2013-07-06 04:33:00,
2013-07-05 22:43:00,80.0,44.0,29.41,SW,220,1.0,-999.0,28,-99.99,,,-99.99,,2013-07-06 04:43:00,
2013-07-05 22:53:00,80.0,44.0,29.41,SW,220,1.0,-999.0,28,-99.99,,,-99.99,,2013-07-06 04:53:00,
2013-07-05 23:02:00,78.0,45.0,29.42,SSE,149,1.0,-999.0,31,-99.99,,,-99.99,,2013-07-06 05:02:00,
2013-07-05 23:12:00,78.0,45.0,29.42,SSE,149,1.0,-999.0,31,-99.99,,,-99.99,,2013-07-06 05:12:00,
2013-07-05 23:22:00,78.0,47.0,29.44,ESE,123,3.0,-999.0,33,-99.99,,,-99.99,,2013-07-06 05:22:00,
2013-07-05 23:33:00,77.0,47.0,29.45,South,172,4.0,-999.0,35,-99.99,,,-99.99,,2013-07-06 05:33:00,
2013-07-05 23:42:00,77.0,47.0,29.45,South,172,4.0,-999.0,35,-99.99,,,-99.99,,2013-07-06 05:42:00,
2013-07-05 23:53:00,75.0,49.0,29.46,SSW,193,6.0,-999.0,40,-99.99,,,-99.99,,2013-07-06 05:53:00,